sensor_id;sensor_type;location;lat;lon;timestamp;pressure;altitude;pressure_sealevel;temperature;humidity
40692;BME280;26377;53.344;14.886;2022-12-18T00:01:57;103046.73;;;-2.74;72.70
40692;BME280;26377;53.344;14.886;2022-12-18T00:04:26;103047.63;;;-2.74;72.70
40692;BME280;26377;53.344;14.886;2022-12-18T00:06:54;103049.39;;;-2.73;72.64
40692;BME280;26377;53.344;14.886;2022-12-18T00:09:21;103049.73;;;-2.75;72.65
40692;BME280;26377;53.344;14.886;2022-12-18T00:11:49;103047.97;;;-2.76;72.63
40692;BME280;26377;53.344;14.886;2022-12-18T00:14:16;103045.44;;;-2.74;72.72
40692;BME280;26377;53.344;14.886;2022-12-18T00:16:44;103041.94;;;-2.75;72.69
40692;BME280;26377;53.344;14.886;2022-12-18T00:19:14;103049.73;;;-2.75;72.70
40692;BME280;26377;53.344;14.886;2022-12-18T00:21:43;103046.20;;;-2.77;72.67
40692;BME280;26377;53.344;14.886;2022-12-18T00:24:10;103053.07;;;-2.79;72.60
40692;BME280;26377;53.344;14.886;2022-12-18T00:26:39;103051.70;;;-2.80;72.62
40692;BME280;26377;53.344;14.886;2022-12-18T00:29:09;103057.73;;;-2.81;72.64
40692;BME280;26377;53.344;14.886;2022-12-18T00:31:37;103059.37;;;-2.83;72.62
40692;BME280;26377;53.344;14.886;2022-12-18T00:34:04;103060.67;;;-2.83;72.62
40692;BME280;26377;53.344;14.886;2022-12-18T00:36:33;103061.10;;;-2.84;72.65
40692;BME280;26377;53.344;14.886;2022-12-18T00:39:02;103059.37;;;-2.83;72.71
40692;BME280;26377;53.344;14.886;2022-12-18T00:41:31;103058.53;;;-2.82;72.68
40692;BME280;26377;53.344;14.886;2022-12-18T00:44:17;103057.67;;;-2.83;72.70
40692;BME280;26377;53.344;14.886;2022-12-18T00:46:45;103056.77;;;-2.83;72.73
40692;BME280;26377;53.344;14.886;2022-12-18T00:49:15;103058.97;;;-2.83;72.70
40692;BME280;26377;53.344;14.886;2022-12-18T00:51:44;103071.52;;;-2.82;72.69
40692;BME280;26377;53.344;14.886;2022-12-18T00:54:11;103065.03;;;-2.82;72.68
40692;BME280;26377;53.344;14.886;2022-12-18T00:56:39;103061.10;;;-2.84;72.70
40692;BME280;26377;53.344;14.886;2022-12-18T00:59:06;103058.91;;;-2.84;72.65
40692;BME280;26377;53.344;14.886;2022-12-18T01:01:33;103061.84;;;-2.86;72.56
40692;BME280;26377;53.344;14.886;2022-12-18T01:04:02;103063.91;;;-2.89;72.62
40692;BME280;26377;53.344;14.886;2022-12-18T01:06:29;103071.70;;;-2.89;72.64
40692;BME280;26377;53.344;14.886;2022-12-18T01:08:57;103080.78;;;-2.89;72.67
40692;BME280;26377;53.344;14.886;2022-12-18T01:11:24;103077.78;;;-2.88;72.70
40692;BME280;26377;53.344;14.886;2022-12-18T01:13:53;103076.89;;;-2.89;72.68
40692;BME280;26377;53.344;14.886;2022-12-18T01:16:22;103079.98;;;-2.88;72.69
40692;BME280;26377;53.344;14.886;2022-12-18T01:18:53;103076.48;;;-2.88;72.68
40692;BME280;26377;53.344;14.886;2022-12-18T01:21:21;103077.33;;;-2.89;72.69
40692;BME280;26377;53.344;14.886;2022-12-18T01:23:54;103080.39;;;-2.88;72.74
40692;BME280;26377;53.344;14.886;2022-12-18T01:26:24;103083.38;;;-2.89;72.67
40692;BME280;26377;53.344;14.886;2022-12-18T01:28:53;103095.50;;;-2.89;72.68
40692;BME280;26377;53.344;14.886;2022-12-18T01:31:28;103088.95;;;-2.91;72.61
40692;BME280;26377;53.344;14.886;2022-12-18T01:33:57;103087.52;;;-2.94;72.62
40692;BME280;26377;53.344;14.886;2022-12-18T01:36:32;103089.64;;;-2.95;72.69
40692;BME280;26377;53.344;14.886;2022-12-18T01:39:02;103087.11;;;-2.93;72.71
40692;BME280;26377;53.344;14.886;2022-12-18T01:41:32;103092.24;;;-2.95;72.70
40692;BME280;26377;53.344;14.886;2022-12-18T01:47:33;103091.31;;;-2.97;72.64
40692;BME280;26377;53.344;14.886;2022-12-18T01:50:18;103085.92;;;-3.01;72.57
40692;BME280;26377;53.344;14.886;2022-12-18T01:53:03;103094.91;;;-3.04;72.64
40692;BME280;26377;53.344;14.886;2022-12-18T01:55:38;103089.22;;;-3.05;72.66
40692;BME280;26377;53.344;14.886;2022-12-18T01:58:15;103095.70;;;-3.05;72.75
40692;BME280;26377;53.344;14.886;2022-12-18T02:00:43;103096.14;;;-3.06;72.74
40692;BME280;26377;53.344;14.886;2022-12-18T02:03:10;103098.27;;;-3.07;72.74
40692;BME280;26377;53.344;14.886;2022-12-18T02:06:00;103109.59;;;-3.05;72.79
40692;BME280;26377;53.344;14.886;2022-12-18T02:09:07;103103.63;;;-3.02;72.79
40692;BME280;26377;53.344;14.886;2022-12-18T02:14:37;103104.16;;;-3.00;72.82
40692;BME280;26377;53.344;14.886;2022-12-18T02:17:17;103107.72;;;-2.98;72.86
40692;BME280;26377;53.344;14.886;2022-12-18T02:26:12;103108.89;;;-3.01;72.87
40692;BME280;26377;53.344;14.886;2022-12-18T02:28:25;103114.08;;;-3.01;72.92
40692;BME280;26377;53.344;14.886;2022-12-18T02:30:56;103114.48;;;-3.01;72.88
40692;BME280;26377;53.344;14.886;2022-12-18T02:33:28;103109.72;;;-3.02;72.89
40692;BME280;26377;53.344;14.886;2022-12-18T02:35:58;103103.63;;;-3.02;72.87
40692;BME280;26377;53.344;14.886;2022-12-18T02:38:27;103107.13;;;-3.02;72.92
40692;BME280;26377;53.344;14.886;2022-12-18T02:40:57;103105.39;;;-3.01;72.90
40692;BME280;26377;53.344;14.886;2022-12-18T02:43:24;103114.15;;;-2.99;72.95
40692;BME280;26377;53.344;14.886;2022-12-18T02:45:57;103121.87;;;-3.01;72.83
40692;BME280;26377;53.344;14.886;2022-12-18T02:48:28;103120.91;;;-3.03;72.78
40692;BME280;26377;53.344;14.886;2022-12-18T02:53:45;103118.74;;;-3.03;72.88
40692;BME280;26377;53.344;14.886;2022-12-18T02:56:21;103118.31;;;-3.03;72.85
40692;BME280;26377;53.344;14.886;2022-12-18T02:59:04;103123.94;;;-3.03;72.83
40692;BME280;26377;53.344;14.886;2022-12-18T03:01:56;103123.41;;;-3.06;72.81
40692;BME280;26377;53.344;14.886;2022-12-18T03:04:38;103125.03;;;-3.08;72.80
40692;BME280;26377;53.344;14.886;2022-12-18T03:07:13;103128.06;;;-3.08;72.80
40692;BME280;26377;53.344;14.886;2022-12-18T03:09:41;103129.62;;;-3.12;72.78
40692;BME280;26377;53.344;14.886;2022-12-18T03:12:32;103140.00;;;-3.12;72.81
40692;BME280;26377;53.344;14.886;2022-12-18T03:17:31;103131.22;;;-3.15;72.83
40692;BME280;26377;53.344;14.886;2022-12-18T03:20:03;103131.58;;;-3.17;72.76
40692;BME280;26377;53.344;14.886;2022-12-18T03:22:33;103143.66;;;-3.18;72.80
40692;BME280;26377;53.344;14.886;2022-12-18T03:25:05;103136.23;;;-3.20;72.77
40692;BME280;26377;53.344;14.886;2022-12-18T03:27:37;103139.66;;;-3.21;72.73
40692;BME280;26377;53.344;14.886;2022-12-18T03:30:12;103138.70;;;-3.23;72.82
40692;BME280;26377;53.344;14.886;2022-12-18T03:32:47;103143.89;;;-3.23;72.80
40692;BME280;26377;53.344;14.886;2022-12-18T03:35:26;103149.47;;;-3.23;72.82
40692;BME280;26377;53.344;14.886;2022-12-18T03:37:57;103149.44;;;-3.25;72.78
40692;BME280;26377;53.344;14.886;2022-12-18T03:40:41;103144.94;;;-3.29;72.72
40692;BME280;26377;53.344;14.886;2022-12-18T03:43:26;103151.00;;;-3.28;72.81
40692;BME280;26377;53.344;14.886;2022-12-18T03:46:13;103150.96;;;-3.30;72.76
40692;BME280;26377;53.344;14.886;2022-12-18T03:48:47;103152.26;;;-3.30;72.85
40692;BME280;26377;53.344;14.886;2022-12-18T03:51:27;103158.25;;;-3.31;72.83
40692;BME280;26377;53.344;14.886;2022-12-18T03:54:02;103166.46;;;-3.31;72.84
40692;BME280;26377;53.344;14.886;2022-12-18T03:56:40;103161.34;;;-3.30;72.92
40692;BME280;26377;53.344;14.886;2022-12-18T03:59:06;103163.58;;;-3.28;72.96
40692;BME280;26377;53.344;14.886;2022-12-18T04:01:45;103169.67;;;-3.27;72.88
40692;BME280;26377;53.344;14.886;2022-12-18T04:04:11;103168.30;;;-3.29;72.84
40692;BME280;26377;53.344;14.886;2022-12-18T04:06:41;103170.89;;;-3.29;72.89
40692;BME280;26377;53.344;14.886;2022-12-18T04:09:10;103171.76;;;-3.28;72.88
40692;BME280;26377;53.344;14.886;2022-12-18T04:11:44;103167.86;;;-3.28;72.86
40692;BME280;26377;53.344;14.886;2022-12-18T04:14:11;103170.06;;;-3.28;72.92
40692;BME280;26377;53.344;14.886;2022-12-18T04:16:38;103170.14;;;-3.26;72.94
40692;BME280;26377;53.344;14.886;2022-12-18T04:19:06;103170.53;;;-3.27;72.88
40692;BME280;26377;53.344;14.886;2022-12-18T04:21:35;103176.19;;;-3.26;72.93
40692;BME280;26377;53.344;14.886;2022-12-18T04:24:02;103178.78;;;-3.26;72.90
40692;BME280;26377;53.344;14.886;2022-12-18T04:26:29;103181.89;;;-3.25;72.89
40692;BME280;26377;53.344;14.886;2022-12-18T04:29:01;103175.80;;;-3.25;72.91
40692;BME280;26377;53.344;14.886;2022-12-18T04:31:28;103175.86;;;-3.24;72.99
40692;BME280;26377;53.344;14.886;2022-12-18T04:33:55;103175.94;;;-3.22;72.97
40692;BME280;26377;53.344;14.886;2022-12-18T04:36:24;103175.50;;;-3.22;72.97
40692;BME280;26377;53.344;14.886;2022-12-18T04:38:52;103182.13;;;-3.19;73.05
40692;BME280;26377;53.344;14.886;2022-12-18T04:41:20;103177.84;;;-3.18;73.02
40692;BME280;26377;53.344;14.886;2022-12-18T04:43:48;103175.64;;;-3.19;73.00
40692;BME280;26377;53.344;14.886;2022-12-18T04:46:15;103177.88;;;-3.17;73.03
40692;BME280;26377;53.344;14.886;2022-12-18T04:48:44;103178.30;;;-3.17;73.00
40692;BME280;26377;53.344;14.886;2022-12-18T04:51:11;103176.18;;;-3.16;73.05
40692;BME280;26377;53.344;14.886;2022-12-18T04:53:39;103179.17;;;-3.17;72.99
40692;BME280;26377;53.344;14.886;2022-12-18T04:56:08;103178.77;;;-3.16;72.97
40692;BME280;26377;53.344;14.886;2022-12-18T04:58:38;103186.56;;;-3.16;73.04
40692;BME280;26377;53.344;14.886;2022-12-18T05:01:06;103187.46;;;-3.16;72.98
40692;BME280;26377;53.344;14.886;2022-12-18T05:03:36;103189.09;;;-3.18;72.96
40692;BME280;26377;53.344;14.886;2022-12-18T05:06:04;103177.88;;;-3.17;73.01
40692;BME280;26377;53.344;14.886;2022-12-18T05:08:32;103172.69;;;-3.17;72.97
40692;BME280;26377;53.344;14.886;2022-12-18T05:11:03;103173.95;;;-3.18;72.98
40692;BME280;26377;53.344;14.886;2022-12-18T05:13:33;103178.30;;;-3.17;72.98
40692;BME280;26377;53.344;14.886;2022-12-18T05:16:00;103182.59;;;-3.18;73.01
40692;BME280;26377;53.344;14.886;2022-12-18T05:18:28;103183.42;;;-3.19;72.98
40692;BME280;26377;53.344;14.886;2022-12-18T05:20:55;103184.26;;;-3.20;72.96
40692;BME280;26377;53.344;14.886;2022-12-18T05:23:24;103191.58;;;-3.21;72.97
40692;BME280;26377;53.344;14.886;2022-12-18T05:25:56;103189.38;;;-3.21;72.96
40692;BME280;26377;53.344;14.886;2022-12-18T05:28:29;103194.10;;;-3.22;72.93
40692;BME280;26377;53.344;14.886;2022-12-18T05:30:58;103200.45;;;-3.25;72.90
40692;BME280;26377;53.344;14.886;2022-12-18T05:33:29;103198.61;;;-3.28;72.90
40692;BME280;26377;53.344;14.886;2022-12-18T05:35:59;103196.78;;;-3.30;72.88
40692;BME280;26377;53.344;14.886;2022-12-18T05:38:28;103204.56;;;-3.30;72.91
40692;BME280;26377;53.344;14.886;2022-12-18T05:40:56;103203.20;;;-3.32;72.96
40692;BME280;26377;53.344;14.886;2022-12-18T05:43:24;103214.55;;;-3.30;73.03
40692;BME280;26377;53.344;14.886;2022-12-18T05:45:52;103216.42;;;-3.26;73.08
40692;BME280;26377;53.344;14.886;2022-12-18T05:48:20;103219.52;;;-3.25;73.06
40692;BME280;26377;53.344;14.886;2022-12-18T05:50:49;103227.34;;;-3.23;73.08
40692;BME280;26377;53.344;14.886;2022-12-18T05:53:18;103228.78;;;-3.20;73.11
40692;BME280;26377;53.344;14.886;2022-12-18T05:55:46;103241.77;;;-3.20;73.08
40692;BME280;26377;53.344;14.886;2022-12-18T05:58:13;103246.20;;;-3.18;73.12
40692;BME280;26377;53.344;14.886;2022-12-18T06:00:43;103246.73;;;-3.15;73.12
40692;BME280;26377;53.344;14.886;2022-12-18T06:03:12;103252.00;;;-3.14;73.06
40692;BME280;26377;53.344;14.886;2022-12-18T06:05:42;103249.02;;;-3.13;73.12
40692;BME280;26377;53.344;14.886;2022-12-18T06:08:12;103255.06;;;-3.13;73.10
40692;BME280;26377;53.344;14.886;2022-12-18T06:10:40;103257.27;;;-3.12;73.06
40692;BME280;26377;53.344;14.886;2022-12-18T06:13:08;103264.16;;;-3.13;73.00
40692;BME280;26377;53.344;14.886;2022-12-18T06:15:37;103266.68;;;-3.14;73.03
40692;BME280;26377;53.344;14.886;2022-12-18T06:18:04;103263.28;;;-3.13;73.05
40692;BME280;26377;53.344;14.886;2022-12-18T06:20:31;103277.61;;;-3.12;73.03
40692;BME280;26377;53.344;14.886;2022-12-18T06:22:59;103284.05;;;-3.13;73.01
40692;BME280;26377;53.344;14.886;2022-12-18T06:25:27;103286.22;;;-3.13;73.05
40692;BME280;26377;53.344;14.886;2022-12-18T06:27:54;103283.23;;;-3.12;73.02
40692;BME280;26377;53.344;14.886;2022-12-18T06:30:22;103287.20;;;-3.11;73.11
40692;BME280;26377;53.344;14.886;2022-12-18T06:32:50;103277.28;;;-3.10;73.06
40692;BME280;26377;53.344;14.886;2022-12-18T06:35:18;103286.37;;;-3.10;73.03
40692;BME280;26377;53.344;14.886;2022-12-18T06:37:45;103286.37;;;-3.10;73.04
40692;BME280;26377;53.344;14.886;2022-12-18T06:40:12;103288.60;;;-3.08;73.03
40692;BME280;26377;53.344;14.886;2022-12-18T06:42:38;103294.23;;;-3.08;73.04
40692;BME280;26377;53.344;14.886;2022-12-18T06:45:07;103298.59;;;-3.07;73.06
40692;BME280;26377;53.344;14.886;2022-12-18T06:47:35;103296.35;;;-3.09;73.01
40692;BME280;26377;53.344;14.886;2022-12-18T06:50:02;103294.16;;;-3.10;73.01
40692;BME280;26377;53.344;14.886;2022-12-18T06:52:32;103298.45;;;-3.10;73.09
40692;BME280;26377;53.344;14.886;2022-12-18T06:54:59;103311.97;;;-3.08;73.07
40692;BME280;26377;53.344;14.886;2022-12-18T06:57:27;103316.84;;;-3.06;73.07
40692;BME280;26377;53.344;14.886;2022-12-18T06:59:55;103315.54;;;-3.06;73.07
40692;BME280;26377;53.344;14.886;2022-12-18T07:02:21;103323.41;;;-3.04;73.11
40692;BME280;26377;53.344;14.886;2022-12-18T07:04:48;103321.67;;;-3.04;73.10
40692;BME280;26377;53.344;14.886;2022-12-18T07:07:15;103324.73;;;-3.03;73.12
40692;BME280;26377;53.344;14.886;2022-12-18T07:09:42;103326.54;;;-3.02;73.17
40692;BME280;26377;53.344;14.886;2022-12-18T07:12:09;103329.25;;;-2.99;73.21
40692;BME280;26377;53.344;14.886;2022-12-18T07:14:37;103323.19;;;-2.99;73.10
40692;BME280;26377;53.344;14.886;2022-12-18T07:17:03;103318.78;;;-3.00;73.06
40692;BME280;26377;53.344;14.886;2022-12-18T07:19:30;103318.39;;;-3.00;73.09
40692;BME280;26377;53.344;14.886;2022-12-18T07:21:58;103319.36;;;-2.98;73.12
40692;BME280;26377;53.344;14.886;2022-12-18T07:24:25;103320.23;;;-2.97;73.13
40692;BME280;26377;53.344;14.886;2022-12-18T07:26:52;103326.87;;;-2.94;73.15
40692;BME280;26377;53.344;14.886;2022-12-18T07:29:19;103325.56;;;-2.94;73.07
40692;BME280;26377;53.344;14.886;2022-12-18T07:31:47;103321.53;;;-2.97;73.00
40692;BME280;26377;53.344;14.886;2022-12-18T07:34:14;103313.73;;;-2.97;73.04
40692;BME280;26377;53.344;14.886;2022-12-18T07:36:41;103307.25;;;-2.97;73.03
40692;BME280;26377;53.344;14.886;2022-12-18T07:39:10;103310.31;;;-2.96;73.03
40692;BME280;26377;53.344;14.886;2022-12-18T07:41:38;103312.58;;;-2.94;73.11
40692;BME280;26377;53.344;14.886;2022-12-18T07:44:12;103320.77;;;-2.95;73.08
40692;BME280;26377;53.344;14.886;2022-12-18T07:46:39;103322.06;;;-2.95;73.12
40692;BME280;26377;53.344;14.886;2022-12-18T07:49:07;103330.77;;;-2.94;73.11
40692;BME280;26377;53.344;14.886;2022-12-18T07:51:34;103330.30;;;-2.95;73.12
40692;BME280;26377;53.344;14.886;2022-12-18T07:54:01;103331.05;;;-2.98;72.99
40692;BME280;26377;53.344;14.886;2022-12-18T07:56:28;103328.78;;;-3.00;72.99
40692;BME280;26377;53.344;14.886;2022-12-18T07:58:56;103329.14;;;-3.02;73.00
40692;BME280;26377;53.344;14.886;2022-12-18T08:01:23;103329.93;;;-3.03;73.01
40692;BME280;26377;53.344;14.886;2022-12-18T08:03:51;103330.77;;;-3.04;73.04
40692;BME280;26377;53.344;14.886;2022-12-18T08:06:19;103335.09;;;-3.04;73.04
40692;BME280;26377;53.344;14.886;2022-12-18T08:08:46;103331.98;;;-3.05;73.03
40692;BME280;26377;53.344;14.886;2022-12-18T08:11:13;103332.81;;;-3.06;73.08
40692;BME280;26377;53.344;14.886;2022-12-18T08:13:41;103325.09;;;-3.05;73.15
40692;BME280;26377;53.344;14.886;2022-12-18T08:16:08;103330.77;;;-3.04;73.10
40692;BME280;26377;53.344;14.886;2022-12-18T08:18:36;103331.12;;;-3.06;73.05
40692;BME280;26377;53.344;14.886;2022-12-18T08:21:12;103329.35;;;-3.07;73.10
40692;BME280;26377;53.344;14.886;2022-12-18T08:23:41;103331.44;;;-3.08;73.07
40692;BME280;26377;53.344;14.886;2022-12-18T08:26:11;103340.49;;;-3.09;73.14
40692;BME280;26377;53.344;14.886;2022-12-18T08:28:38;103344.10;;;-3.06;73.21
40692;BME280;26377;53.344;14.886;2022-12-18T08:31:07;103337.25;;;-3.04;73.24
40692;BME280;26377;53.344;14.886;2022-12-18T08:33:35;103329.06;;;-3.03;73.23
40692;BME280;26377;53.344;14.886;2022-12-18T08:36:04;103342.59;;;-3.01;73.32
40692;BME280;26377;53.344;14.886;2022-12-18T08:38:32;103344.91;;;-2.97;73.26
40692;BME280;26377;53.344;14.886;2022-12-18T08:41:04;103360.09;;;-2.97;73.29
40692;BME280;26377;53.344;14.886;2022-12-18T08:43:32;103362.75;;;-2.95;73.35
40692;BME280;26377;53.344;14.886;2022-12-18T08:46:20;103361.56;;;-2.92;73.39
40692;BME280;26377;53.344;14.886;2022-12-18T08:48:50;103356.52;;;-2.89;73.42
40692;BME280;26377;53.344;14.886;2022-12-18T08:51:18;103360.41;;;-2.89;73.34
40692;BME280;26377;53.344;14.886;2022-12-18T08:53:46;103353.56;;;-2.87;73.42
40692;BME280;26377;53.344;14.886;2022-12-18T08:56:14;103352.41;;;-2.84;73.42
40692;BME280;26377;53.344;14.886;2022-12-18T08:58:42;103367.30;;;-2.80;73.45
40692;BME280;26377;53.344;14.886;2022-12-18T09:01:10;103360.45;;;-2.78;73.45
40692;BME280;26377;53.344;14.886;2022-12-18T09:03:39;103367.95;;;-2.75;73.48
40692;BME280;26377;53.344;14.886;2022-12-18T09:06:07;103362.51;;;-2.71;73.50
40692;BME280;26377;53.344;14.886;2022-12-18T09:08:35;103351.36;;;-2.69;73.47
40692;BME280;26377;53.344;14.886;2022-12-18T09:11:14;103360.02;;;-2.68;73.37
40692;BME280;26377;53.344;14.886;2022-12-18T09:13:46;103357.02;;;-2.68;73.43
40692;BME280;26377;53.344;14.886;2022-12-18T09:16:13;103363.59;;;-2.66;73.45
40692;BME280;26377;53.344;14.886;2022-12-18T09:18:41;103372.32;;;-2.64;73.44
40692;BME280;26377;53.344;14.886;2022-12-18T09:21:15;103371.48;;;-2.63;73.48
40692;BME280;26377;53.344;14.886;2022-12-18T09:23:48;103368.64;;;-2.60;73.51
40692;BME280;26377;53.344;14.886;2022-12-18T09:26:16;103363.55;;;-2.57;73.54
40692;BME280;26377;53.344;14.886;2022-12-18T09:28:44;103365.45;;;-2.53;73.49
40692;BME280;26377;53.344;14.886;2022-12-18T09:31:13;103364.30;;;-2.50;73.54
40692;BME280;26377;53.344;14.886;2022-12-18T09:33:40;103362.63;;;-2.48;73.48
40692;BME280;26377;53.344;14.886;2022-12-18T09:36:12;103360.58;;;-2.45;73.43
40692;BME280;26377;53.344;14.886;2022-12-18T09:38:40;103356.34;;;-2.43;73.39
40692;BME280;26377;53.344;14.886;2022-12-18T09:47:03;103363.45;;;-2.39;73.38
40692;BME280;26377;53.344;14.886;2022-12-18T09:49:48;103370.70;;;-2.42;73.32
40692;BME280;26377;53.344;14.886;2022-12-18T09:52:34;103375.91;;;-2.42;73.32
40692;BME280;26377;53.344;14.886;2022-12-18T09:57:56;103369.11;;;-2.38;73.34
40692;BME280;26377;53.344;14.886;2022-12-18T10:00:33;103376.52;;;-2.38;73.34
40692;BME280;26377;53.344;14.886;2022-12-18T10:03:14;103373.48;;;-2.37;73.32
40692;BME280;26377;53.344;14.886;2022-12-18T10:14:55;103379.66;;;-2.35;73.32
40692;BME280;26377;53.344;14.886;2022-12-18T10:17:37;103384.02;;;-2.34;73.33
40692;BME280;26377;53.344;14.886;2022-12-18T10:20:17;103387.16;;;-2.32;73.33
40692;BME280;26377;53.344;14.886;2022-12-18T10:28:06;103401.45;;;-2.32;73.19
40692;BME280;26377;53.344;14.886;2022-12-18T10:30:38;103398.78;;;-2.33;73.16
40692;BME280;26377;53.344;14.886;2022-12-18T10:33:12;103393.19;;;-2.33;73.16
40692;BME280;26377;53.344;14.886;2022-12-18T10:35:42;103395.36;;;-2.32;73.17
40692;BME280;26377;53.344;14.886;2022-12-18T10:40:54;103390.16;;;-2.32;73.12
40692;BME280;26377;53.344;14.886;2022-12-18T10:43:28;103378.13;;;-2.30;73.21
40692;BME280;26377;53.344;14.886;2022-12-18T10:48:34;103374.70;;;-2.29;73.12
40692;BME280;26377;53.344;14.886;2022-12-18T10:51:07;103373.47;;;-2.28;73.14
40692;BME280;26377;53.344;14.886;2022-12-18T10:53:36;103363.61;;;-2.25;73.21
40692;BME280;26377;53.344;14.886;2022-12-18T10:56:05;103362.41;;;-2.22;73.22
40692;BME280;26377;53.344;14.886;2022-12-18T10:58:38;103362.47;;;-2.21;73.18
40692;BME280;26377;53.344;14.886;2022-12-18T11:06:24;103342.51;;;-2.11;73.25
40692;BME280;26377;53.344;14.886;2022-12-18T11:09:08;103343.88;;;-2.09;73.22
40692;BME280;26377;53.344;14.886;2022-12-18T11:11:49;103348.75;;;-2.07;73.20
40692;BME280;26377;53.344;14.886;2022-12-18T11:19:58;103334.60;;;-1.92;73.36
40692;BME280;26377;53.344;14.886;2022-12-18T11:22:31;103331.36;;;-1.86;73.36
40692;BME280;26377;53.344;14.886;2022-12-18T11:27:53;103325.23;;;-1.88;73.17
40692;BME280;26377;53.344;14.886;2022-12-18T11:30:25;103325.09;;;-1.91;73.03
40692;BME280;26377;53.344;14.886;2022-12-18T11:38:27;103315.33;;;-1.97;72.97
40692;BME280;26377;53.344;14.886;2022-12-18T11:40:58;103312.70;;;-1.98;72.96
40692;BME280;26377;53.344;14.886;2022-12-18T11:51:41;103328.17;;;-2.12;72.82
40692;BME280;26377;53.344;14.886;2022-12-18T11:54:16;103323.00;;;-2.11;72.94
40692;BME280;26377;53.344;14.886;2022-12-18T11:56:55;103323.51;;;-2.10;72.91
40692;BME280;26377;53.344;14.886;2022-12-18T12:02:30;103318.23;;;-2.11;72.70
40692;BME280;26377;53.344;14.886;2022-12-18T12:04:47;103317.64;;;-2.15;72.63
40692;BME280;26377;53.344;14.886;2022-12-18T12:07:53;103317.11;;;-2.18;72.70
40692;BME280;26377;53.344;14.886;2022-12-18T12:10:42;103314.20;;;-2.14;72.83
40692;BME280;26377;53.344;14.886;2022-12-18T12:24:44;103300.97;;;-2.09;72.74
40692;BME280;26377;53.344;14.886;2022-12-18T12:30:13;103312.91;;;-2.14;72.69
40692;BME280;26377;53.344;14.886;2022-12-18T12:33:05;103318.03;;;-2.16;72.75
40692;BME280;26377;53.344;14.886;2022-12-18T12:38:34;103315.80;;;-2.18;72.67
40692;BME280;26377;53.344;14.886;2022-12-18T12:41:08;103316.64;;;-2.19;72.68
40692;BME280;26377;53.344;14.886;2022-12-18T12:43:44;103316.20;;;-2.18;72.78
40692;BME280;26377;53.344;14.886;2022-12-18T12:46:16;103324.54;;;-2.16;72.76
40692;BME280;26377;53.344;14.886;2022-12-18T12:51:37;103331.47;;;-2.16;72.66
40692;BME280;26377;53.344;14.886;2022-12-18T12:54:15;103329.04;;;-2.23;72.58
40692;BME280;26377;53.344;14.886;2022-12-18T12:57:00;103338.47;;;-2.25;72.57
40692;BME280;26377;53.344;14.886;2022-12-18T12:59:44;103333.50;;;-2.30;72.51
40692;BME280;26377;53.344;14.886;2022-12-18T13:02:35;103328.20;;;-2.33;72.56
40692;BME280;26377;53.344;14.886;2022-12-18T13:08:09;103317.06;;;-2.40;72.59
40692;BME280;26377;53.344;14.886;2022-12-18T13:10:40;103319.13;;;-2.42;72.51
40692;BME280;26377;53.344;14.886;2022-12-18T13:15:47;103332.74;;;-2.48;72.60
40692;BME280;26377;53.344;14.886;2022-12-18T13:18:19;103345.13;;;-2.52;72.46
40692;BME280;26377;53.344;14.886;2022-12-18T13:20:53;103357.95;;;-2.56;72.50
40692;BME280;26377;53.344;14.886;2022-12-18T13:23:36;103357.95;;;-2.56;72.50
40692;BME280;26377;53.344;14.886;2022-12-18T13:26:29;103370.58;;;-2.54;72.75
40692;BME280;26377;53.344;14.886;2022-12-18T13:28:50;103381.52;;;-2.52;72.80
40692;BME280;26377;53.344;14.886;2022-12-18T13:34:16;103379.05;;;-2.49;72.83
40692;BME280;26377;53.344;14.886;2022-12-18T13:36:52;103373.03;;;-2.48;72.83
40692;BME280;26377;53.344;14.886;2022-12-18T13:39:23;103369.56;;;-2.48;72.78
40692;BME280;26377;53.344;14.886;2022-12-18T13:42:40;103373.39;;;-2.50;72.74
40692;BME280;26377;53.344;14.886;2022-12-18T13:44:36;103369.72;;;-2.55;72.67
40692;BME280;26377;53.344;14.886;2022-12-18T13:50:03;103385.16;;;-2.48;72.92
40692;BME280;26377;53.344;14.886;2022-12-18T13:52:39;103390.89;;;-2.46;72.89
40692;BME280;26377;53.344;14.886;2022-12-18T13:55:14;103387.46;;;-2.45;72.86
40692;BME280;26377;53.344;14.886;2022-12-18T13:57:39;103377.06;;;-2.45;72.86
40692;BME280;26377;53.344;14.886;2022-12-18T14:02:55;103369.13;;;-2.48;72.81
40692;BME280;26377;53.344;14.886;2022-12-18T14:05:25;103373.93;;;-2.47;72.85
40692;BME280;26377;53.344;14.886;2022-12-18T14:08:01;103372.34;;;-2.44;72.89
40692;BME280;26377;53.344;14.886;2022-12-18T14:10:35;103361.11;;;-2.43;72.90
40692;BME280;26377;53.344;14.886;2022-12-18T14:13:10;103359.81;;;-2.43;72.87
40692;BME280;26377;53.344;14.886;2022-12-18T14:15:42;103357.11;;;-2.46;72.80
40692;BME280;26377;53.344;14.886;2022-12-18T14:21:06;103359.09;;;-2.50;72.74
40692;BME280;26377;53.344;14.886;2022-12-18T14:23:41;103348.45;;;-2.56;72.70
40692;BME280;26377;53.344;14.886;2022-12-18T14:26:23;103340.45;;;-2.60;72.62
40692;BME280;26377;53.344;14.886;2022-12-18T14:28:57;103342.04;;;-2.64;72.67
40692;BME280;26377;53.344;14.886;2022-12-18T14:31:29;103334.94;;;-2.68;72.72
40692;BME280;26377;53.344;14.886;2022-12-18T14:33:58;103338.66;;;-2.72;72.66
40692;BME280;26377;53.344;14.886;2022-12-18T14:36:27;103344.47;;;-2.78;72.66
40692;BME280;26377;53.344;14.886;2022-12-18T14:38:58;103331.41;;;-2.79;72.75
40692;BME280;26377;53.344;14.886;2022-12-18T14:41:27;103328.34;;;-2.80;72.78
40692;BME280;26377;53.344;14.886;2022-12-18T14:44:04;103320.84;;;-2.84;72.75
40692;BME280;26377;53.344;14.886;2022-12-18T14:46:36;103322.94;;;-2.85;72.76
40692;BME280;26377;53.344;14.886;2022-12-18T14:49:33;103317.66;;;-2.86;72.80
40692;BME280;26377;53.344;14.886;2022-12-18T14:52:03;103320.27;;;-2.86;72.80
40692;BME280;26377;53.344;14.886;2022-12-18T14:54:34;103315.36;;;-2.90;72.75
40692;BME280;26377;53.344;14.886;2022-12-18T14:59:43;103317.88;;;-2.91;72.87